Time,TemperatureF,DewpointF,PressureIn,WindDirection,WindDirectionDegrees,WindSpeedMPH,WindSpeedGustMPH,Humidity,HourlyPrecipIn,Conditions,Clouds,dailyrainin,SoftwareType,DateUTC
2013-10-17 00:13:00,61.7,55.5,30.01,WSW,238,0.0,0.0,80,0.00,,FEW120,0.00,VWS V14.01,2013-10-17 04:13:00,
2013-10-17 00:28:00,61.7,55.8,30.01,WSW,238,0.0,0.0,81,0.00,,FEW120,0.00,VWS V14.01,2013-10-17 04:28:00,
2013-10-17 00:43:00,61.6,55.7,30.00,WSW,238,0.0,0.0,81,0.00,,FEW120,0.00,VWS V14.01,2013-10-17 04:43:00,
2013-10-17 00:58:00,61.5,55.6,30.00,WSW,238,0.0,0.0,81,0.00,,FEW120,0.00,VWS V14.01,2013-10-17 04:58:00,
2013-10-17 01:13:00,61.5,55.6,30.00,WSW,238,0.0,0.0,81,0.00,,BKN110,0.00,VWS V14.01,2013-10-17 05:13:00,
2013-10-17 01:28:00,61.5,55.6,30.00,WSW,238,0.0,0.0,81,0.00,,BKN110,0.00,VWS V14.01,2013-10-17 05:28:00,
2013-10-17 01:43:00,61.5,56.0,30.00,WSW,238,0.0,0.0,82,0.00,,BKN110,0.00,VWS V14.01,2013-10-17 05:43:00,
2013-10-17 01:58:00,61.5,56.0,30.00,WSW,238,0.0,0.0,82,0.00,,BKN110,0.00,VWS V14.01,2013-10-17 05:58:00,
2013-10-17 02:13:00,61.3,55.8,30.00,WSW,238,0.0,0.0,82,0.00,,BKN120,0.00,VWS V14.01,2013-10-17 06:13:00,
2013-10-17 02:28:00,60.9,55.7,29.99,WSW,238,0.0,0.0,83,0.00,,BKN120,0.00,VWS V14.01,2013-10-17 06:28:00,
2013-10-17 02:43:00,60.9,55.7,29.99,WSW,238,0.0,0.0,83,0.00,,BKN120,0.00,VWS V14.01,2013-10-17 06:43:00,
2013-10-17 02:58:00,60.9,55.7,29.99,WSW,238,0.0,0.0,83,0.00,,BKN120,0.00,VWS V14.01,2013-10-17 06:58:00,
2013-10-17 03:13:00,61.1,56.2,29.98,WSW,238,0.0,0.0,84,0.00,,BKN090,0.00,VWS V14.01,2013-10-17 07:13:00,
2013-10-17 03:28:00,61.3,56.4,29.98,WSW,238,0.0,0.0,84,0.00,,BKN090,0.00,VWS V14.01,2013-10-17 07:28:00,
2013-10-17 03:43:00,61.5,56.6,29.98,WSW,238,0.0,0.0,84,0.00,,BKN090,0.00,VWS V14.01,2013-10-17 07:43:00,
2013-10-17 03:58:00,61.6,56.7,29.98,WSW,238,0.0,0.0,84,0.00,,BKN090,0.00,VWS V14.01,2013-10-17 07:58:00,
2013-10-17 04:13:00,61.7,56.8,29.97,WSW,238,0.0,0.0,84,0.00,,OVC055,0.00,VWS V14.01,2013-10-17 08:13:00,
2013-10-17 04:28:00,61.7,56.8,29.97,WSW,238,0.0,0.0,84,0.00,,OVC055,0.00,VWS V14.01,2013-10-17 08:28:00,
2013-10-17 04:43:00,61.6,56.7,29.97,WSW,238,0.0,0.0,84,0.00,,OVC055,0.00,VWS V14.01,2013-10-17 08:43:00,
2013-10-17 04:58:00,62.0,56.8,29.97,WSW,238,1.3,1.3,83,0.00,,OVC055,0.00,VWS V14.01,2013-10-17 08:58:00,
2013-10-17 05:13:00,62.8,56.9,29.97,WSW,238,0.0,2.6,81,0.00,,OVC060,0.00,VWS V14.01,2013-10-17 09:13:00,
2013-10-17 05:28:00,63.3,56.7,29.97,SSW,196,2.6,7.8,79,0.00,,OVC060,0.00,VWS V14.01,2013-10-17 09:28:00,
2013-10-17 05:43:00,63.3,56.7,29.97,WSW,246,1.3,5.2,79,0.00,,OVC060,0.00,VWS V14.01,2013-10-17 09:43:00,
2013-10-17 05:58:00,63.4,56.8,29.98,WSW,238,0.0,3.9,79,0.00,,OVC060,0.00,VWS V14.01,2013-10-17 09:58:00,
2013-10-17 06:13:00,63.4,56.8,29.98,WSW,237,1.3,5.2,79,0.00,,OVC050,0.00,VWS V14.01,2013-10-17 10:13:00,
2013-10-17 06:28:00,63.4,56.8,29.97,SSW,207,2.6,3.9,79,0.00,,OVC050,0.00,VWS V14.01,2013-10-17 10:28:00,
2013-10-17 06:43:00,63.4,56.8,29.98,West,268,3.9,5.2,79,0.00,,OVC050,0.00,VWS V14.01,2013-10-17 10:43:00,
2013-10-17 06:58:00,63.4,56.8,29.98,West,268,0.0,1.3,79,0.00,,OVC050,0.00,VWS V14.01,2013-10-17 10:58:00,
2013-10-17 07:13:00,63.4,57.1,29.97,WNW,289,0.0,2.6,80,0.00,,OVC080,0.00,VWS V14.01,2013-10-17 11:13:00,
2013-10-17 07:28:00,63.3,57.0,29.97,WNW,289,0.0,2.6,80,0.00,,OVC080,0.00,VWS V14.01,2013-10-17 11:28:00,
2013-10-17 07:43:00,63.3,57.4,29.98,SW,236,2.6,5.2,81,0.00,,OVC080,0.00,VWS V14.01,2013-10-17 11:43:00,
2013-10-17 07:58:00,63.5,57.2,29.98,SW,219,1.3,2.6,80,0.00,,OVC080,0.00,VWS V14.01,2013-10-17 11:58:00,
2013-10-17 08:13:00,63.8,57.5,29.98,West,262,0.0,2.6,80,0.00,,OVC090,0.00,VWS V14.01,2013-10-17 12:13:00,
2013-10-17 08:28:00,64.0,57.7,29.98,West,262,1.3,3.9,80,0.00,,OVC090,0.00,VWS V14.01,2013-10-17 12:28:00,
2013-10-17 08:43:00,64.4,57.8,29.98,West,262,0.0,2.6,79,0.00,,OVC090,0.00,VWS V14.01,2013-10-17 12:43:00,
2013-10-17 08:58:00,64.7,57.7,29.99,SSW,205,1.3,5.2,78,0.00,,OVC090,0.00,VWS V14.01,2013-10-17 12:58:00,
2013-10-17 09:13:00,64.7,58.0,29.99,SSW,205,0.0,2.6,79,0.00,,OVC085,0.00,VWS V14.01,2013-10-17 13:13:00,
2013-10-17 09:28:00,64.3,57.7,29.99,SW,228,2.6,7.8,79,0.00,,OVC085,0.00,VWS V14.01,2013-10-17 13:28:00,
2013-10-17 09:43:00,64.2,57.9,29.99,SW,236,2.6,5.2,80,0.00,,OVC085,0.00,VWS V14.01,2013-10-17 13:43:00,
2013-10-17 09:58:00,64.5,58.2,29.99,WSW,241,1.3,6.5,80,0.00,,OVC085,0.00,VWS V14.01,2013-10-17 13:58:00,
2013-10-17 10:13:00,64.8,58.1,29.99,WSW,251,0.0,5.2,79,0.00,,OVC070,0.00,VWS V14.01,2013-10-17 14:13:00,
2013-10-17 10:28:00,65.1,58.1,29.99,SW,236,7.8,9.1,78,0.00,,OVC070,0.00,VWS V14.01,2013-10-17 14:28:00,
2013-10-17 10:43:00,65.6,58.6,29.99,WNW,283,3.9,6.5,78,0.00,,OVC070,0.00,VWS V14.01,2013-10-17 14:43:00,
2013-10-17 10:58:00,66.0,58.6,29.99,SW,217,2.6,5.2,77,0.00,,OVC070,0.00,VWS V14.01,2013-10-17 14:58:00,
2013-10-17 11:13:00,66.1,58.3,29.99,SW,218,2.6,7.8,76,0.00,,OVC045,0.00,VWS V14.01,2013-10-17 15:13:00,
2013-10-17 11:28:00,66.4,58.6,29.98,WSW,245,6.5,9.1,76,0.00,,OVC045,0.00,VWS V14.01,2013-10-17 15:28:00,
2013-10-17 11:43:00,67.0,58.8,29.98,SSW,212,5.2,6.5,75,0.00,,OVC045,0.00,VWS V14.01,2013-10-17 15:43:00,
2013-10-17 11:58:00,67.2,58.6,29.98,WNW,290,5.2,6.5,74,0.00,,OVC045,0.00,VWS V14.01,2013-10-17 15:58:00,
2013-10-17 12:13:00,67.2,58.6,29.97,WSW,258,5.2,9.1,74,0.00,,OVC035,0.00,VWS V14.01,2013-10-17 16:13:00,
2013-10-17 12:28:00,67.8,59.2,29.97,West,259,5.2,7.8,74,0.00,,OVC035,0.00,VWS V14.01,2013-10-17 16:28:00,
2013-10-17 12:43:00,67.7,59.1,29.97,SW,230,1.3,7.8,74,0.00,,OVC035,0.00,VWS V14.01,2013-10-17 16:43:00,
2013-10-17 12:58:00,66.5,59.1,29.97,SSW,207,2.6,7.8,77,0.01,,OVC035,0.01,VWS V14.01,2013-10-17 16:58:00,
2013-10-17 13:13:00,65.3,59.0,29.96,South,188,6.5,6.5,80,0.04,,-RA,0.04,VWS V14.01,2013-10-17 17:13:00,
2013-10-17 13:28:00,64.7,59.1,29.95,SW,229,0.0,7.8,82,0.10,,-RA,0.10,VWS V14.01,2013-10-17 17:28:00,
2013-10-17 13:43:00,64.7,59.4,29.94,WSW,243,5.2,9.1,83,0.10,,-RA,0.10,VWS V14.01,2013-10-17 17:43:00,
2013-10-17 13:58:00,64.5,59.2,29.94,SSW,198,3.9,9.1,83,0.13,,-RA,0.13,VWS V14.01,2013-10-17 17:58:00,
2013-10-17 14:13:00,64.3,59.4,29.93,SW,221,7.8,10.4,84,0.18,,RA,0.19,VWS V14.01,2013-10-17 18:13:00,
2013-10-17 14:28:00,64.3,59.4,29.93,SE,142,6.5,10.4,84,0.18,,RA,0.22,VWS V14.01,2013-10-17 18:28:00,
2013-10-17 14:43:00,64.6,59.7,29.92,SSW,200,6.5,10.4,84,0.14,,RA,0.24,VWS V14.01,2013-10-17 18:43:00,
2013-10-17 14:58:00,64.8,59.9,29.92,South,181,0.0,10.4,84,0.15,,-RA,0.25,VWS V14.01,2013-10-17 18:58:00,
2013-10-17 15:13:00,64.9,60.0,29.92,WSW,244,9.1,11.7,84,0.12,,-RA,0.25,VWS V14.01,2013-10-17 19:13:00,
2013-10-17 15:28:00,65.2,60.2,29.92,SW,225,1.3,9.1,84,0.06,,-RA,0.25,VWS V14.01,2013-10-17 19:28:00,
2013-10-17 15:43:00,65.2,59.9,29.91,WSW,243,6.5,11.7,83,0.03,,-RA,0.25,VWS V14.01,2013-10-17 19:43:00,
2013-10-17 15:58:00,65.3,60.3,29.91,WSW,251,5.2,11.7,84,0.01,,-RA,0.25,VWS V14.01,2013-10-17 19:58:00,
2013-10-17 16:13:00,65.4,60.5,29.91,SSW,196,1.3,9.1,84,0.00,,,0.25,VWS V14.01,2013-10-17 20:13:00,
2013-10-17 16:28:00,65.5,60.2,29.92,WSW,252,3.9,6.5,83,0.00,,,0.25,VWS V14.01,2013-10-17 20:28:00,
2013-10-17 16:43:00,65.5,60.2,29.91,WSW,253,9.1,10.4,83,0.00,,,0.25,VWS V14.01,2013-10-17 20:43:00,
2013-10-17 16:58:00,65.6,60.6,29.91,SSE,164,5.2,6.5,84,0.00,,,0.25,VWS V14.01,2013-10-17 20:58:00,
2013-10-17 17:13:00,65.7,60.7,29.91,WSW,252,9.1,10.4,84,0.00,,,0.25,VWS V14.01,2013-10-17 21:13:00,
2013-10-17 17:28:00,66.0,61.0,29.91,WSW,242,6.5,7.8,84,0.00,,,0.25,VWS V14.01,2013-10-17 21:28:00,
2013-10-17 17:43:00,66.1,61.1,29.91,WSW,242,3.9,9.1,84,0.00,,,0.25,VWS V14.01,2013-10-17 21:43:00,
2013-10-17 17:58:00,66.1,61.1,29.91,WSW,243,5.2,9.1,84,0.00,,,0.25,VWS V14.01,2013-10-17 21:58:00,
2013-10-17 18:13:00,66.2,61.2,29.91,WSW,245,0.0,3.9,84,0.00,,,0.25,VWS V14.01,2013-10-17 22:13:00,
2013-10-17 18:28:00,66.2,61.2,29.91,West,267,5.2,7.8,84,0.00,,,0.25,VWS V14.01,2013-10-17 22:28:00,
2013-10-17 18:43:00,66.3,61.3,29.92,WSW,257,3.9,9.1,84,0.00,,,0.25,VWS V14.01,2013-10-17 22:43:00,
2013-10-17 18:58:00,66.3,61.3,29.92,WSW,254,5.2,6.5,84,0.00,,,0.25,VWS V14.01,2013-10-17 22:58:00,
2013-10-17 19:13:00,66.3,61.3,29.92,SW,232,3.9,7.8,84,0.00,,,0.25,VWS V14.01,2013-10-17 23:13:00,
2013-10-17 19:28:00,66.3,61.3,29.92,WSW,249,9.1,10.4,84,0.00,,,0.25,VWS V14.01,2013-10-17 23:28:00,
2013-10-17 19:43:00,66.3,61.3,29.93,West,268,2.6,3.9,84,0.00,,,0.25,VWS V14.01,2013-10-17 23:43:00,
2013-10-17 19:58:00,66.4,61.4,29.92,West,265,2.6,3.9,84,0.00,,,0.25,VWS V14.01,2013-10-17 23:58:00,
2013-10-17 20:13:00,66.4,61.4,29.93,SW,227,1.3,3.9,84,0.00,,,0.25,VWS V14.01,2013-10-18 00:13:00,
2013-10-17 20:28:00,66.5,61.5,29.93,WSW,249,2.6,5.2,84,0.00,,,0.25,VWS V14.01,2013-10-18 00:28:00,
2013-10-17 20:43:00,66.5,61.5,29.93,SW,227,1.3,5.2,84,0.00,,,0.25,VWS V14.01,2013-10-18 00:43:00,
2013-10-17 20:58:00,66.5,61.5,29.93,SW,234,5.2,6.5,84,0.00,,,0.25,VWS V14.01,2013-10-18 00:58:00,
2013-10-17 21:13:00,66.5,61.9,29.93,WSW,244,2.6,6.5,85,0.00,,,0.25,VWS V14.01,2013-10-18 01:13:00,
2013-10-17 21:28:00,66.6,62.0,29.93,SSW,202,1.3,3.9,85,0.00,,,0.25,VWS V14.01,2013-10-18 01:28:00,
2013-10-17 21:43:00,66.6,62.0,29.93,SW,217,0.0,2.6,85,0.00,,,0.25,VWS V14.01,2013-10-18 01:43:00,
2013-10-17 21:58:00,66.3,61.7,29.94,SW,230,3.9,5.2,85,0.00,,,0.25,VWS V14.01,2013-10-18 01:58:00,
2013-10-17 22:13:00,66.1,61.5,29.93,West,264,5.2,10.4,85,0.00,,,0.25,VWS V14.01,2013-10-18 02:13:00,
2013-10-17 22:28:00,66.0,61.4,29.94,SSW,212,2.6,2.6,85,0.00,,,0.25,VWS V14.01,2013-10-18 02:28:00,
2013-10-17 22:43:00,65.9,61.3,29.94,WSW,248,2.6,6.5,85,0.00,,,0.25,VWS V14.01,2013-10-18 02:43:00,
2013-10-17 22:58:00,65.9,61.3,29.94,WSW,242,6.5,6.5,85,0.00,,,0.25,VWS V14.01,2013-10-18 02:58:00,
2013-10-17 23:13:00,65.8,61.5,29.94,SSW,200,0.0,0.0,86,0.00,,,0.25,VWS V14.01,2013-10-18 03:13:00,
2013-10-17 23:28:00,65.5,60.9,29.94,SSW,200,0.0,0.0,85,0.00,,,0.25,VWS V14.01,2013-10-18 03:28:00,
2013-10-17 23:43:00,65.4,61.1,29.94,NE,35,0.0,2.6,86,0.00,,,0.25,VWS V14.01,2013-10-18 03:43:00,
2013-10-17 23:59:00,65.4,61.1,29.94,NE,35,0.0,1.3,86,0.00,,,0.25,VWS V14.01,2013-10-18 03:59:00,